Terminal Aerodrome Forecast
Issued by NWS Cleveland, OH

Home | Current Version | Previous Version | Graphics & Text | Print | Product List | Glossary On
Versions: 1 2 3 4 5 6 7 8 9 10 11 12 13 14 15 16 17
000
FTUS41 KCLE 141700
TAFCAK
TAF
KCAK 141739Z 1418/1518 21018G30KT P6SM VCSH SCT015 OVC035
      TEMPO 1419/1423 3SM -SHRA BR SCT015 OVC025
     FM150000 27012G20KT P6SM VCSH SCT015 OVC025
     FM150500 33015G25KT 3SM -SHRA BR SCT006 OVC012
     FM150900 33015G25KT 2SM -SN OVC006
     FM151600 32015G25KT P6SM BKN006 OVC012=

USA.gov is the U.S. government's official web portal to all federal, state and local government web resources and services.